El Encanto — WDD6057 — position and weather

sailwx.info

Track history (hours):
 
Tides and Currents Weather Stations Pressure Air Temp Water Temp Dewpoint Dewpoint Depression Visibility Wind Speed Wind Dir Waves Ship Positions

El Encanto

Owner: Dock High LLC, Irvine, CA. More information available from US FCC via Universal Licensing System and Coast Guard Vessel Documentation Center.

Last reported at 2018-Jul-23 12:12 UTC. Time now 2018-Jul-23 13:53 UTC.
Position N 33°37' W 117°55'.

Length 22 m.

Type: Pleasure craft. MMSI: 367167740.

Date/timePositionNaut miles runAvg speedWind from/ knotsBaromVisibWave heightAir tempDewpointWater temp
2018-Jul-23 12:12N 33°37' W 117°55'0 0.0
2018-Jul-23 11:51N 33°37' W 117°55'0 0.0
2018-Jul-23 10:15N 33°37' W 117°55'0 0.0
2018-Jul-23 09:57N 33°37' W 117°55'0 0.0
2018-Jul-23 09:30N 33°37' W 117°55'0 0.0
2018-Jul-23 08:51N 33°37' W 117°55'0 0.0
2018-Jul-23 08:15N 33°37' W 117°55'0 0.0
2018-Jul-23 07:09N 33°37' W 117°55'0 0.0
2018-Jul-23 06:09N 33°37' W 117°55'0 0.0
2018-Jul-23 05:57N 33°37' W 117°55'0 0.0
2018-Jul-23 05:30N 33°37' W 117°55'0 0.0
2018-Jul-23 04:39N 33°37' W 117°55'0 0.0
2018-Jul-23 04:30N 33°37' W 117°55'0 0.0
2018-Jul-23 03:45N 33°37' W 117°55'0 0.0
2018-Jul-23 03:15N 33°37' W 117°55'0 0.0
2018-Jul-23 02:57N 33°37' W 117°55'0 0.0
2018-Jul-23 02:30N 33°37' W 117°55'0 0.0
2018-Jul-23 02:00N 33°37' W 117°55'0 0.0
2018-Jul-23 01:24N 33°37' W 117°55'0 0.0
2018-Jul-23 00:48N 33°37' W 117°55'0 0.0
2018-Jul-23 00:24N 33°37' W 117°55'0 0.0
2018-Jul-22 23:24N 33°37' W 117°55'0 0.0
2018-Jul-22 22:57N 33°37' W 117°55'0 0.0
2018-Jul-22 22:27N 33°37' W 117°55'0 0.1
2018-Jul-22 21:44N 33°37' W 117°56'1 3.9
2018-Jul-22 21:29N 33°37' W 117°54'2 4.1
2018-Jul-22 21:00N 33°35' W 117°53'5 9.3
2018-Jul-22 20:29N 33°32' W 117°57'4 9.4
2018-Jul-22 20:00N 33°29' W 118°01'5 9.5
2018-Jul-22 19:30N 33°27' W 118°06'5 9.5
2018-Jul-22 19:00N 33°24' W 118°10'5 9.6
2018-Jul-22 18:28N 33°20' W 118°15'3 5.4
2018-Jul-22 17:59N 33°21' W 118°18'4 8.2
2018-Jul-22 17:30N 33°24' W 118°21'1 1.4
2018-Jul-22 17:00N 33°24' W 118°22'0 0.0
2018-Jul-22 16:15N 33°24' W 118°22'0 0.0
2018-Jul-22 14:30N 33°24' W 118°22'0 0.1
2018-Jul-22 14:00N 33°24' W 118°22'0 0.0
2018-Jul-22 13:15N 33°24' W 118°22'0 0.0
2018-Jul-22 12:45N 33°24' W 118°22'0 0.0
2018-Jul-22 12:27N 33°24' W 118°22'0 0.0
2018-Jul-22 11:45N 33°24' W 118°22'0 0.0
2018-Jul-22 11:30N 33°24' W 118°22'0 0.0
2018-Jul-22 11:00N 33°24' W 118°22'0 0.0
2018-Jul-22 10:30N 33°24' W 118°22'0 0.0
2018-Jul-22 09:54N 33°24' W 118°22'0 0.0
2018-Jul-22 09:30N 33°24' W 118°22'0 0.0
2018-Jul-22 09:00N 33°24' W 118°22'0 0.1
2018-Jul-22 08:30N 33°24' W 118°22'0 0.1
2018-Jul-22 07:57N 33°24' W 118°22'0 0.0
2018-Jul-22 07:30N 33°24' W 118°22'0 0.0
2018-Jul-22 06:57N 33°24' W 118°22'0 0.0
2018-Jul-22 06:30N 33°24' W 118°22'0 0.0
2018-Jul-22 05:57N 33°24' W 118°22'0 0.0
2018-Jul-22 05:21N 33°24' W 118°22'0 0.0
2018-Jul-22 04:57N 33°24' W 118°22'0 0.0
2018-Jul-22 04:30N 33°24' W 118°22'0 0.0
2018-Jul-22 04:00N 33°24' W 118°22'0 0.1
2018-Jul-22 03:27N 33°24' W 118°22'0 0.0
2018-Jul-22 02:57N 33°24' W 118°22'0 0.0
2018-Jul-22 02:30N 33°24' W 118°22'0 0.0
2018-Jul-22 01:57N 33°24' W 118°22'0 0.0
2018-Jul-22 01:23N 33°24' W 118°22'0 0.0
2018-Jul-22 00:55N 33°24' W 118°22'0 0.0
2018-Jul-22 00:25N 33°24' W 118°22'0 0.1
2018-Jul-21 23:43N 33°24' W 118°22'0 0.0
2018-Jul-21 23:28N 33°24' W 118°22'0 0.0
2018-Jul-21 22:52N 33°24' W 118°22'0 0.0
2018-Jul-21 22:28N 33°24' W 118°22'0 0.0
2018-Jul-21 21:01N 33°24' W 118°22'0 0.1
2018-Jul-21 20:55N 33°24' W 118°22'0 0.1
2018-Jul-21 20:28N 33°24' W 118°22'0 0.1
2018-Jul-21 19:43N 33°24' W 118°22'0 0.0
2018-Jul-21 19:07N 33°24' W 118°22'0 0.0
2018-Jul-21 18:46N 33°24' W 118°22'0 0.0
2018-Jul-21 15:49N 33°24' W 118°22'0 0.0
2018-Jul-21 15:13N 33°24' W 118°22'0 0.0
2018-Jul-21 14:55N 33°24' W 118°22'0 0.0
2018-Jul-21 14:22N 33°24' W 118°22'0 0.0
2018-Jul-21 13:28N 33°24' W 118°22'0 0.0
2018-Jul-21 12:55N 33°24' W 118°22'0 0.0
2018-Jul-21 12:22N 33°24' W 118°22'0 0.0
2018-Jul-21 11:49N 33°24' W 118°22'0 0.0
2018-Jul-21 11:16N 33°24' W 118°22'0 0.0
2018-Jul-21 10:58N 33°24' W 118°22'0 0.0
2018-Jul-21 10:01N 33°24' W 118°22'0 0.0
2018-Jul-21 09:37N 33°24' W 118°22'0 0.0
2018-Jul-21 09:25N 33°24' W 118°22'0 0.0
2018-Jul-21 08:58N 33°24' W 118°22'0 0.0
2018-Jul-21 08:28N 33°24' W 118°22'0 0.0
2018-Jul-21 07:58N 33°24' W 118°22'0 0.0
2018-Jul-21 07:19N 33°24' W 118°22'0 0.0
2018-Jul-21 06:43N 33°24' W 118°22'0 0.0
2018-Jul-21 06:28N 33°24' W 118°22'0 0.0
2018-Jul-21 05:52N 33°24' W 118°22'0 0.0
2018-Jul-21 05:28N 33°24' W 118°22'0 0.0
2018-Jul-21 04:31N 33°24' W 118°22'0 0.0
2018-Jul-21 04:25N 33°24' W 118°22'0 0.0
2018-Jul-21 03:55N 33°24' W 118°22'0 0.0
2018-Jul-21 03:28N 33°24' W 118°22'0 0.0
2018-Jul-21 02:58N 33°24' W 118°22'0 0.0
2018-Jul-21 02:25N 33°24' W 118°22'0 0.0
2018-Jul-21 01:55N 33°24' W 118°22'0 0.0
2018-Jul-21 01:28N 33°24' W 118°22'0 0.0
2018-Jul-21 00:58N 33°24' W 118°22'0 0.0
2018-Jul-21 00:28N 33°24' W 118°22'0 0.0
2018-Jul-20 23:55N 33°24' W 118°22'0 0.0
2018-Jul-20 23:28N 33°24' W 118°22'0 0.0
2018-Jul-20 22:58N 33°24' W 118°22'0 0.0
2018-Jul-20 22:19N 33°24' W 118°22'0 0.9
2018-Jul-20 22:00N 33°24' W 118°22'0 0.4
2018-Jul-20 21:30N 33°23' W 118°22'1 1.2
2018-Jul-20 21:00N 33°23' W 118°21'2 4.4
2018-Jul-20 20:30N 33°22' W 118°20'3 4.5
2018-Jul-20 19:55N 33°23' W 118°17'410.0
2018-Jul-20 19:30N 33°25' W 118°12'5 9.7
2018-Jul-20 18:59N 33°27' W 118°07'510.0
2018-Jul-20 18:29N 33°30' W 118°02'1010.1
2018-Jul-20 17:32N 33°35' W 117°53'0 8.1
2018-Jul-20 17:30N 33°35' W 117°53'3 2.8
2018-Jul-20 16:31N 33°37' W 117°55'0 0.0
2018-Jul-20 14:43N 33°37' W 117°55'0 0.0
2018-Jul-20 14:28N 33°37' W 117°55'0 0.0
2018-Jul-20 13:55N 33°37' W 117°55'0 0.0
2018-Jul-20 13:25N 33°37' W 117°55'0 0.0
2018-Jul-20 12:43N 33°37' W 117°55'0 0.0
2018-Jul-20 12:10N 33°37' W 117°55'0 0.0
2018-Jul-20 11:46N 33°37' W 117°55'0 0.0
2018-Jul-20 11:19N 33°37' W 117°55'0 0.0
2018-Jul-20 10:37N 33°37' W 117°55'0 0.0
2018-Jul-20 10:25N 33°37' W 117°55'0 0.0
2018-Jul-20 09:46N 33°37' W 117°55'0 0.0
2018-Jul-20 08:43N 33°37' W 117°55'0 0.0
2018-Jul-20 07:49N 33°37' W 117°55'0 0.0
2018-Jul-20 06:31N 33°37' W 117°55'0 0.0
2018-Jul-20 06:22N 33°37' W 117°55'0 0.0
2018-Jul-20 05:52N 33°37' W 117°55'0 0.0
2018-Jul-20 03:25N 33°37' W 117°55'0 0.0
2018-Jul-20 02:55N 33°37' W 117°55'0 0.0
2018-Jul-20 02:22N 33°37' W 117°55'0 0.0
2018-Jul-20 01:55N 33°37' W 117°55'0 0.0
2018-Jul-20 00:13N 33°37' W 117°55'0 0.0
2018-Jul-19 23:58N 33°37' W 117°55'0 0.0
2018-Jul-19 22:37N 33°37' W 117°55'0 0.0
2018-Jul-19 22:25N 33°37' W 117°55'0 0.0
2018-Jul-19 21:49N 33°37' W 117°55'0 0.0
2018-Jul-19 20:10N 33°37' W 117°55'0 0.0
2018-Jul-19 19:55N 33°37' W 117°55'0 0.0
2018-Jul-19 18:19N 33°37' W 117°55'0 0.0
2018-Jul-19 17:49N 33°37' W 117°55'0 0.0
2018-Jul-19 17:04N 33°37' W 117°55'0 0.0
2018-Jul-19 16:58N 33°37' W 117°55'0 0.0
2018-Jul-19 15:31N 33°37' W 117°55'0 0.0
2018-Jul-19 15:25N 33°37' W 117°55'0 0.0
2018-Jul-19 14:49N 33°37' W 117°55'0 0.0
2018-Jul-19 14:28N 33°37' W 117°55'0 0.0
2018-Jul-19 12:52N 33°37' W 117°55'0 0.0
2018-Jul-19 11:28N 33°37' W 117°55'0 0.0
2018-Jul-19 10:58N 33°37' W 117°55'0 0.0
2018-Jul-19 10:04N 33°37' W 117°55'0 0.0
2018-Jul-19 09:52N 33°37' W 117°55'0 0.0
2018-Jul-19 09:28N 33°37' W 117°55'0 0.0
2018-Jul-19 08:43N 33°37' W 117°55'0 0.0
2018-Jul-19 08:19N 33°37' W 117°55'0 0.0
2018-Jul-19 07:31N 33°37' W 117°55'0 0.0
2018-Jul-19 07:19N 33°37' W 117°55'0 0.0
2018-Jul-19 06:55N 33°37' W 117°55'0 0.0
2018-Jul-19 06:22N 33°37' W 117°55'0 0.0
2018-Jul-19 05:13N 33°37' W 117°55'0 0.0
2018-Jul-19 04:37N 33°37' W 117°55'0 0.0
2018-Jul-19 03:19N 33°37' W 117°55'0 0.0
2018-Jul-19 01:01N 33°37' W 117°55'0 0.0
2018-Jul-19 00:58N 33°37' W 117°55'0 0.0
2018-Jul-19 00:25N 33°37' W 117°55'0 0.0
2018-Jul-18 23:52N 33°37' W 117°55'0 0.0
2018-Jul-18 22:49N 33°37' W 117°55'0 0.0
2018-Jul-18 22:28N 33°37' W 117°55'0 0.0
2018-Jul-18 21:55N 33°37' W 117°55'0 0.0
2018-Jul-18 21:28N 33°37' W 117°55'0 0.0
2018-Jul-18 20:49N 33°37' W 117°55'0 0.0
2018-Jul-18 20:10N 33°37' W 117°55'0 0.0
2018-Jul-18 19:58N 33°37' W 117°55'0 0.0
2018-Jul-18 19:16N 33°37' W 117°55'0 0.0
2018-Jul-18 18:37N 33°37' W 117°55'0 0.0
2018-Jul-18 18:22N 33°37' W 117°55'0 0.0
2018-Jul-18 17:55N 33°37' W 117°55'0 0.0
2018-Jul-18 17:07N 33°37' W 117°55'0 0.0
2018-Jul-18 16:46N 33°37' W 117°55'0 0.0
2018-Jul-18 15:43N 33°37' W 117°55'0 0.0
2018-Jul-18 15:22N 33°37' W 117°55'0 0.0
2018-Jul-18 14:52N 33°37' W 117°55'0 0.0
2018-Jul-18 13:10N 33°37' W 117°55'0 0.0
2018-Jul-18 12:58N 33°37' W 117°55'0 0.0
2018-Jul-18 12:28N 33°37' W 117°55'0 0.0
2018-Jul-18 11:37N 33°37' W 117°55'0 0.0
2018-Jul-18 11:28N 33°37' W 117°55'0 0.0
2018-Jul-18 10:25N 33°37' W 117°55'0 0.0
2018-Jul-18 09:58N 33°37' W 117°55'0 0.0
2018-Jul-18 09:22N 33°37' W 117°55'0 0.0
2018-Jul-18 08:40N 33°37' W 117°55'0 0.0
2018-Jul-18 08:25N 33°37' W 117°55'0 0.0
2018-Jul-18 07:58N 33°37' W 117°55'0 0.0
2018-Jul-18 07:22N 33°37' W 117°55'0 0.0
2018-Jul-18 06:55N 33°37' W 117°55'0 0.0
2018-Jul-18 06:22N 33°37' W 117°55'0 0.0
2018-Jul-18 05:55N 33°37' W 117°55'0 0.0
2018-Jul-18 04:58N 33°37' W 117°55'0 0.0
2018-Jul-18 04:25N 33°37' W 117°55'0 0.0
2018-Jul-18 02:49N 33°37' W 117°55'0 0.0
2018-Jul-18 02:16N 33°37' W 117°55'0 0.0
2018-Jul-18 01:46N 33°37' W 117°55'0 0.0
2018-Jul-18 00:10N 33°37' W 117°55'0 0.0
2018-Jul-17 23:31N 33°37' W 117°55'0 0.0
2018-Jul-17 23:19N 33°37' W 117°55'0 0.0
2018-Jul-17 21:04N 33°37' W 117°55'0 0.0
2018-Jul-17 20:49N 33°37' W 117°55'0 0.0
2018-Jul-17 20:28N 33°37' W 117°55'0 0.0
2018-Jul-17 19:58N 33°37' W 117°55'0 0.0
2018-Jul-17 19:16N 33°37' W 117°55'0 0.0
2018-Jul-17 18:55N 33°37' W 117°55'0 0.0
2018-Jul-17 18:22N 33°37' W 117°55'0 0.0
2018-Jul-17 17:55N 33°37' W 117°55'0 0.0
2018-Jul-17 17:16N 33°37' W 117°55'0 0.0
2018-Jul-17 16:55N 33°37' W 117°55'0 0.0
2018-Jul-17 16:25N 33°37' W 117°55'0 0.0
2018-Jul-17 15:55N 33°37' W 117°55'0 0.0
2018-Jul-17 14:10N 33°37' W 117°55'0 0.0
2018-Jul-17 13:34N 33°37' W 117°55'0 0.0
2018-Jul-17 13:28N 33°37' W 117°55'0 0.0
2018-Jul-17 12:58N 33°37' W 117°55'0 0.0
2018-Jul-17 10:49N 33°37' W 117°55'0 0.0
2018-Jul-17 09:34N 33°37' W 117°55'0 0.0
2018-Jul-17 09:22N 33°37' W 117°55'0 0.0
2018-Jul-17 08:19N 33°37' W 117°55'0 0.0
2018-Jul-17 07:34N 33°37' W 117°55'0 0.0
2018-Jul-17 07:25N 33°37' W 117°55'0 0.0
2018-Jul-17 06:55N 33°37' W 117°55'0 0.0
2018-Jul-17 06:16N 33°37' W 117°55'0 0.0
2018-Jul-17 05:49N 33°37' W 117°55'0 0.0
2018-Jul-17 05:25N 33°37' W 117°55'0 0.0
2018-Jul-17 04:43N 33°37' W 117°55'0 0.0
2018-Jul-17 03:49N 33°37' W 117°55'0 0.0
2018-Jul-17 03:25N 33°37' W 117°55'0 0.0
2018-Jul-17 02:58N 33°37' W 117°55'0 0.0
2018-Jul-17 02:04N 33°37' W 117°55'0 0.0
2018-Jul-17 01:52N 33°37' W 117°55'0 0.0
2018-Jul-17 01:19N 33°37' W 117°55'0 0.0
2018-Jul-17 00:22N 33°37' W 117°55'0 0.0
2018-Jul-16 21:49N 33°37' W 117°55'0 0.0
2018-Jul-16 21:28N 33°37' W 117°55'0 0.0
2018-Jul-16 20:52N 33°37' W 117°55'0 0.0
2018-Jul-16 19:28N 33°37' W 117°55'0 0.0
2018-Jul-16 18:43N 33°37' W 117°55'0 0.0
2018-Jul-16 18:19N 33°37' W 117°55'0 0.0
2018-Jul-16 17:55N 33°37' W 117°55'0 0.0
2018-Jul-16 16:55N 33°37' W 117°55'0 0.0
2018-Jul-16 16:25N 33°37' W 117°55'0 0.0
2018-Jul-16 15:52N 33°37' W 117°55'0 0.0
2018-Jul-16 14:49N 33°37' W 117°55'0 0.0
2018-Jul-16 14:16N 33°37' W 117°55'0 0.0
2018-Jul-16 13:55N 33°37' W 117°55'0 0.0
2018-Jul-16 13:22N 33°37' W 117°55'0 0.0
2018-Jul-16 12:37N 33°37' W 117°55'0 0.0
2018-Jul-16 12:28N 33°37' W 117°55'0 0.0
2018-Jul-16 11:52N 33°37' W 117°55'0 0.0
2018-Jul-16 11:22N 33°37' W 117°55'0 0.0
2018-Jul-16 10:55N 33°37' W 117°55'0 0.0
2018-Jul-16 10:22N 33°37' W 117°55'0 0.0
2018-Jul-16 09:46N 33°37' W 117°55'0 0.0
2018-Jul-16 09:19N 33°37' W 117°55'0 0.0
2018-Jul-16 08:43N 33°37' W 117°55'0 0.0
2018-Jul-16 08:25N 33°37' W 117°55'0 0.0
2018-Jul-16 07:49N 33°37' W 117°55'0 0.0
2018-Jul-16 07:25N 33°37' W 117°55'0 0.0
2018-Jul-16 04:22N 33°37' W 117°55'0 0.0
2018-Jul-16 03:58N 33°37' W 117°55'0 0.0
2018-Jul-16 03:13N 33°37' W 117°55'0 0.0
2018-Jul-16 02:52N 33°37' W 117°55'0 0.0
2018-Jul-16 02:28N 33°37' W 117°55'0 0.0
2018-Jul-16 01:46N 33°37' W 117°55'0 0.0
2018-Jul-16 01:28N 33°37' W 117°55'0 0.0
2018-Jul-16 00:46N 33°37' W 117°55'0 0.0
2018-Jul-16 00:28N 33°37' W 117°55'0 0.0
2018-Jul-15 23:52N 33°37' W 117°55'0 0.0
2018-Jul-15 23:28N 33°37' W 117°55'0 0.0
2018-Jul-15 22:58N 33°37' W 117°55'0 0.0
2018-Jul-15 19:33N 33°37' W 117°55'0 0.0
2018-Jul-15 19:27N 33°37' W 117°55'3 1.5
2018-Jul-15 17:39N 33°35' W 117°54'1 3.9
2018-Jul-15 17:20N 33°35' W 117°53'2 4.7
2018-Jul-15 17:00N 33°36' W 117°54'2 1.2
2018-Jul-15 15:43N 33°37' W 117°55'0 0.0
2018-Jul-15 15:22N 33°37' W 117°55'0 0.0
2018-Jul-15 14:58N 33°37' W 117°55'0 0.0
2018-Jul-15 14:16N 33°37' W 117°55'0 0.0
2018-Jul-15 13:58N 33°37' W 117°55'0 0.0
2018-Jul-15 13:28N 33°37' W 117°55'0 0.0
2018-Jul-15 12:52N 33°37' W 117°55'0 0.0
2018-Jul-15 12:22N 33°37' W 117°55'0 0.0
2018-Jul-15 10:52N 33°37' W 117°55'0 0.0
2018-Jul-15 10:22N 33°37' W 117°55'0 0.0
2018-Jul-15 09:58N 33°37' W 117°55'0 0.0
2018-Jul-15 09:13N 33°37' W 117°55'0 0.0
2018-Jul-15 08:52N 33°37' W 117°55'0 0.0
2018-Jul-15 08:28N 33°37' W 117°55'0 0.0
2018-Jul-15 07:58N 33°37' W 117°55'0 0.0
2018-Jul-15 07:28N 33°37' W 117°55'0 0.0
2018-Jul-15 06:52N 33°37' W 117°55'0 0.0
2018-Jul-15 06:28N 33°37' W 117°55'0 0.0
2018-Jul-15 05:58N 33°37' W 117°55'0 0.0
2018-Jul-15 05:28N 33°37' W 117°55'0 0.0
2018-Jul-15 04:58N 33°37' W 117°55'0 0.0
2018-Jul-15 03:45N 33°37' W 117°55'1 2.5
2018-Jul-15 03:30N 33°37' W 117°55'1 2.3
2018-Jul-15 03:00N 33°36' W 117°54'2 3.1
2018-Jul-15 02:30N 33°37' W 117°55'2 3.1
2018-Jul-15 01:59N 33°36' W 117°54'1 1.2
2018-Jul-15 01:30N 33°36' W 117°53'1 2.1
2018-Jul-15 01:00N 33°37' W 117°54'1 2.8
2018-Jul-15 00:30N 33°37' W 117°55'0 0.0
2018-Jul-15 00:00N 33°37' W 117°55'0 0.0
2018-Jul-14 23:27N 33°37' W 117°55'0 0.0
2018-Jul-14 23:00N 33°37' W 117°55'0 0.0
2018-Jul-14 22:27N 33°37' W 117°55'0 0.0
2018-Jul-14 21:57N 33°37' W 117°55'0 0.0
2018-Jul-14 21:27N 33°37' W 117°55'0 0.0
2018-Jul-14 21:00N 33°37' W 117°55'0 0.0
2018-Jul-14 20:21N 33°37' W 117°55'0 0.0
2018-Jul-14 19:57N 33°37' W 117°55'0 0.0
2018-Jul-14 19:30N 33°37' W 117°55'0 0.0
2018-Jul-14 18:39N 33°37' W 117°55'0 0.0
2018-Jul-14 18:21N 33°37' W 117°55'0 0.0
2018-Jul-14 17:09N 33°37' W 117°55'0 0.0
2018-Jul-14 16:39N 33°37' W 117°55'0 0.0
2018-Jul-14 16:21N 33°37' W 117°55'0 0.0
2018-Jul-14 15:57N 33°37' W 117°55'0 0.0
2018-Jul-14 15:27N 33°37' W 117°55'0 0.0
2018-Jul-14 15:00N 33°37' W 117°55'0 0.0
2018-Jul-14 14:00N 33°37' W 117°55'0 0.0
2018-Jul-14 13:12N 33°37' W 117°55'0 0.0
2018-Jul-14 12:15N 33°37' W 117°55'0 0.0
2018-Jul-14 11:36N 33°37' W 117°55'0 0.0
2018-Jul-14 11:18N 33°37' W 117°55'0 0.0
2018-Jul-14 10:57N 33°37' W 117°55'0 0.0
2018-Jul-14 10:24N 33°37' W 117°55'0 0.0
2018-Jul-14 09:57N 33°37' W 117°55'0 0.0
2018-Jul-14 09:12N 33°37' W 117°55'0 0.0
2018-Jul-14 08:39N 33°37' W 117°55'0 0.0
2018-Jul-14 08:21N 33°37' W 117°55'0 0.0
2018-Jul-14 07:57N 33°37' W 117°55'0 0.0
2018-Jul-14 06:24N 33°37' W 117°55'0 0.0
2018-Jul-14 05:48N 33°37' W 117°55'0 0.0
2018-Jul-14 05:21N 33°37' W 117°55'1 1.0
2018-Jul-14 04:43N 33°37' W 117°55'0 0.7
2018-Jul-14 04:15N 33°37' W 117°55'2 2.8
2018-Jul-14 03:39N 33°36' W 117°53'1 4.5
2018-Jul-14 03:28N 33°36' W 117°54'2 2.7
2018-Jul-14 02:51N 33°37' W 117°55'0 0.0
2018-Jul-14 02:24N 33°37' W 117°55'0 0.0
2018-Jul-14 01:57N 33°37' W 117°55'0 0.0
2018-Jul-14 01:24N 33°37' W 117°55'0 0.0
2018-Jul-14 00:54N 33°37' W 117°55'0 0.0
2018-Jul-14 00:21N 33°37' W 117°55'0 0.0
2018-Jul-14 00:00N 33°37' W 117°55'0 0.0
2018-Jul-13 23:30N 33°37' W 117°55'0 0.0
2018-Jul-13 23:00N 33°37' W 117°55'0 0.0
2018-Jul-13 21:30N 33°37' W 117°55'0 0.0
2018-Jul-13 20:54N 33°37' W 117°55'0 0.0
2018-Jul-13 20:21N 33°37' W 117°55'0 0.0
2018-Jul-13 20:00N 33°37' W 117°55'0 0.0
2018-Jul-13 19:30N 33°37' W 117°55'0 0.0
2018-Jul-13 18:54N 33°37' W 117°55'0 0.0
2018-Jul-13 18:30N 33°37' W 117°55'0 0.0
2018-Jul-13 17:57N 33°37' W 117°55'0 0.0
2018-Jul-13 17:21N 33°37' W 117°55'0 0.0
2018-Jul-13 16:09N 33°37' W 117°55'0 0.0
2018-Jul-13 13:21N 33°37' W 117°55'0 0.0
2018-Jul-13 13:00N 33°37' W 117°55'  
Track history (hours):
 
Tides and Currents Weather Stations Pressure Air Temp Water Temp Dewpoint Dewpoint Depression Visibility Wind Speed Wind Dir Waves Ship Positions

El Encanto

Owner: Dock High LLC, Irvine, CA. More information available from US FCC via Universal Licensing System and Coast Guard Vessel Documentation Center.

Last reported at 2018-Jul-23 12:12 UTC. Time now 2018-Jul-23 13:53 UTC.
Position N 33°37' W 117°55'.

Length 22 m.

Type: Pleasure craft. MMSI: 367167740.

Date/timePositionNaut miles runAvg speedWind from/ knotsBaromVisibWave heightAir tempDewpointWater temp
2018-Jul-23 12:12N 33°37' W 117°55'0 0.0
2018-Jul-23 11:51N 33°37' W 117°55'0 0.0
2018-Jul-23 10:15N 33°37' W 117°55'0 0.0
2018-Jul-23 09:57N 33°37' W 117°55'0 0.0
2018-Jul-23 09:30N 33°37' W 117°55'0 0.0
2018-Jul-23 08:51N 33°37' W 117°55'0 0.0
2018-Jul-23 08:15N 33°37' W 117°55'0 0.0
2018-Jul-23 07:09N 33°37' W 117°55'0 0.0
2018-Jul-23 06:09N 33°37' W 117°55'0 0.0
2018-Jul-23 05:57N 33°37' W 117°55'0 0.0
2018-Jul-23 05:30N 33°37' W 117°55'0 0.0
2018-Jul-23 04:39N 33°37' W 117°55'0 0.0
2018-Jul-23 04:30N 33°37' W 117°55'0 0.0
2018-Jul-23 03:45N 33°37' W 117°55'0 0.0
2018-Jul-23 03:15N 33°37' W 117°55'0 0.0
2018-Jul-23 02:57N 33°37' W 117°55'0 0.0
2018-Jul-23 02:30N 33°37' W 117°55'0 0.0
2018-Jul-23 02:00N 33°37' W 117°55'0 0.0
2018-Jul-23 01:24N 33°37' W 117°55'0 0.0
2018-Jul-23 00:48N 33°37' W 117°55'0 0.0
2018-Jul-23 00:24N 33°37' W 117°55'0 0.0
2018-Jul-22 23:24N 33°37' W 117°55'0 0.0
2018-Jul-22 22:57N 33°37' W 117°55'0 0.0
2018-Jul-22 22:27N 33°37' W 117°55'0 0.1
2018-Jul-22 21:44N 33°37' W 117°56'1 3.9
2018-Jul-22 21:29N 33°37' W 117°54'2 4.1
2018-Jul-22 21:00N 33°35' W 117°53'5 9.3
2018-Jul-22 20:29N 33°32' W 117°57'4 9.4
2018-Jul-22 20:00N 33°29' W 118°01'5 9.5
2018-Jul-22 19:30N 33°27' W 118°06'5 9.5
2018-Jul-22 19:00N 33°24' W 118°10'5 9.6
2018-Jul-22 18:28N 33°20' W 118°15'3 5.4
2018-Jul-22 17:59N 33°21' W 118°18'4 8.2
2018-Jul-22 17:30N 33°24' W 118°21'1 1.4
2018-Jul-22 17:00N 33°24' W 118°22'0 0.0
2018-Jul-22 16:15N 33°24' W 118°22'0 0.0
2018-Jul-22 14:30N 33°24' W 118°22'0 0.1
2018-Jul-22 14:00N 33°24' W 118°22'0 0.0
2018-Jul-22 13:15N 33°24' W 118°22'0 0.0
2018-Jul-22 12:45N 33°24' W 118°22'0 0.0
2018-Jul-22 12:27N 33°24' W 118°22'0 0.0
2018-Jul-22 11:45N 33°24' W 118°22'0 0.0
2018-Jul-22 11:30N 33°24' W 118°22'0 0.0
2018-Jul-22 11:00N 33°24' W 118°22'0 0.0
2018-Jul-22 10:30N 33°24' W 118°22'0 0.0
2018-Jul-22 09:54N 33°24' W 118°22'0 0.0
2018-Jul-22 09:30N 33°24' W 118°22'0 0.0
2018-Jul-22 09:00N 33°24' W 118°22'0 0.1
2018-Jul-22 08:30N 33°24' W 118°22'0 0.1
2018-Jul-22 07:57N 33°24' W 118°22'0 0.0
2018-Jul-22 07:30N 33°24' W 118°22'0 0.0
2018-Jul-22 06:57N 33°24' W 118°22'0 0.0
2018-Jul-22 06:30N 33°24' W 118°22'0 0.0
2018-Jul-22 05:57N 33°24' W 118°22'0 0.0
2018-Jul-22 05:21N 33°24' W 118°22'0 0.0
2018-Jul-22 04:57N 33°24' W 118°22'0 0.0
2018-Jul-22 04:30N 33°24' W 118°22'0 0.0
2018-Jul-22 04:00N 33°24' W 118°22'0 0.1
2018-Jul-22 03:27N 33°24' W 118°22'0 0.0
2018-Jul-22 02:57N 33°24' W 118°22'0 0.0
2018-Jul-22 02:30N 33°24' W 118°22'0 0.0
2018-Jul-22 01:57N 33°24' W 118°22'0 0.0
2018-Jul-22 01:23N 33°24' W 118°22'0 0.0
2018-Jul-22 00:55N 33°24' W 118°22'0 0.0
2018-Jul-22 00:25N 33°24' W 118°22'0 0.1
2018-Jul-21 23:43N 33°24' W 118°22'0 0.0
2018-Jul-21 23:28N 33°24' W 118°22'0 0.0
2018-Jul-21 22:52N 33°24' W 118°22'0 0.0
2018-Jul-21 22:28N 33°24' W 118°22'0 0.0
2018-Jul-21 21:01N 33°24' W 118°22'0 0.1
2018-Jul-21 20:55N 33°24' W 118°22'0 0.1
2018-Jul-21 20:28N 33°24' W 118°22'0 0.1
2018-Jul-21 19:43N 33°24' W 118°22'0 0.0
2018-Jul-21 19:07N 33°24' W 118°22'0 0.0
2018-Jul-21 18:46N 33°24' W 118°22'0 0.0
2018-Jul-21 15:49N 33°24' W 118°22'0 0.0
2018-Jul-21 15:13N 33°24' W 118°22'0 0.0
2018-Jul-21 14:55N 33°24' W 118°22'0 0.0
2018-Jul-21 14:22N 33°24' W 118°22'0 0.0
2018-Jul-21 13:28N 33°24' W 118°22'0 0.0
2018-Jul-21 12:55N 33°24' W 118°22'0 0.0
2018-Jul-21 12:22N 33°24' W 118°22'0 0.0
2018-Jul-21 11:49N 33°24' W 118°22'0 0.0
2018-Jul-21 11:16N 33°24' W 118°22'0 0.0
2018-Jul-21 10:58N 33°24' W 118°22'0 0.0
2018-Jul-21 10:01N 33°24' W 118°22'0 0.0
2018-Jul-21 09:37N 33°24' W 118°22'0 0.0
2018-Jul-21 09:25N 33°24' W 118°22'0 0.0
2018-Jul-21 08:58N 33°24' W 118°22'0 0.0
2018-Jul-21 08:28N 33°24' W 118°22'0 0.0
2018-Jul-21 07:58N 33°24' W 118°22'0 0.0
2018-Jul-21 07:19N 33°24' W 118°22'0 0.0
2018-Jul-21 06:43N 33°24' W 118°22'0 0.0
2018-Jul-21 06:28N 33°24' W 118°22'0 0.0
2018-Jul-21 05:52N 33°24' W 118°22'0 0.0
2018-Jul-21 05:28N 33°24' W 118°22'0 0.0
2018-Jul-21 04:31N 33°24' W 118°22'0 0.0
2018-Jul-21 04:25N 33°24' W 118°22'0 0.0
2018-Jul-21 03:55N 33°24' W 118°22'0 0.0
2018-Jul-21 03:28N 33°24' W 118°22'0 0.0
2018-Jul-21 02:58N 33°24' W 118°22'0 0.0
2018-Jul-21 02:25N 33°24' W 118°22'0 0.0
2018-Jul-21 01:55N 33°24' W 118°22'0 0.0
2018-Jul-21 01:28N 33°24' W 118°22'0 0.0
2018-Jul-21 00:58N 33°24' W 118°22'0 0.0
2018-Jul-21 00:28N 33°24' W 118°22'0 0.0
2018-Jul-20 23:55N 33°24' W 118°22'0 0.0
2018-Jul-20 23:28N 33°24' W 118°22'0 0.0
2018-Jul-20 22:58N 33°24' W 118°22'0 0.0
2018-Jul-20 22:19N 33°24' W 118°22'0 0.9
2018-Jul-20 22:00N 33°24' W 118°22'0 0.4
2018-Jul-20 21:30N 33°23' W 118°22'1 1.2
2018-Jul-20 21:00N 33°23' W 118°21'2 4.4
2018-Jul-20 20:30N 33°22' W 118°20'3 4.5
2018-Jul-20 19:55N 33°23' W 118°17'410.0
2018-Jul-20 19:30N 33°25' W 118°12'5 9.7
2018-Jul-20 18:59N 33°27' W 118°07'510.0
2018-Jul-20 18:29N 33°30' W 118°02'1010.1
2018-Jul-20 17:32N 33°35' W 117°53'0 8.1
2018-Jul-20 17:30N 33°35' W 117°53'3 2.8
2018-Jul-20 16:31N 33°37' W 117°55'0 0.0
2018-Jul-20 14:43N 33°37' W 117°55'0 0.0
2018-Jul-20 14:28N 33°37' W 117°55'0 0.0
2018-Jul-20 13:55N 33°37' W 117°55'0 0.0
2018-Jul-20 13:25N 33°37' W 117°55'0 0.0
2018-Jul-20 12:43N 33°37' W 117°55'0 0.0
2018-Jul-20 12:10N 33°37' W 117°55'0 0.0
2018-Jul-20 11:46N 33°37' W 117°55'0 0.0
2018-Jul-20 11:19N 33°37' W 117°55'0 0.0
2018-Jul-20 10:37N 33°37' W 117°55'0 0.0
2018-Jul-20 10:25N 33°37' W 117°55'0 0.0
2018-Jul-20 09:46N 33°37' W 117°55'0 0.0
2018-Jul-20 08:43N 33°37' W 117°55'0 0.0
2018-Jul-20 07:49N 33°37' W 117°55'0 0.0
2018-Jul-20 06:31N 33°37' W 117°55'0 0.0
2018-Jul-20 06:22N 33°37' W 117°55'0 0.0
2018-Jul-20 05:52N 33°37' W 117°55'0 0.0
2018-Jul-20 03:25N 33°37' W 117°55'0 0.0
2018-Jul-20 02:55N 33°37' W 117°55'0 0.0
2018-Jul-20 02:22N 33°37' W 117°55'0 0.0
2018-Jul-20 01:55N 33°37' W 117°55'0 0.0
2018-Jul-20 00:13N 33°37' W 117°55'0 0.0
2018-Jul-19 23:58N 33°37' W 117°55'0 0.0
2018-Jul-19 22:37N 33°37' W 117°55'0 0.0
2018-Jul-19 22:25N 33°37' W 117°55'0 0.0
2018-Jul-19 21:49N 33°37' W 117°55'0 0.0
2018-Jul-19 20:10N 33°37' W 117°55'0 0.0
2018-Jul-19 19:55N 33°37' W 117°55'0 0.0
2018-Jul-19 18:19N 33°37' W 117°55'0 0.0
2018-Jul-19 17:49N 33°37' W 117°55'0 0.0
2018-Jul-19 17:04N 33°37' W 117°55'0 0.0
2018-Jul-19 16:58N 33°37' W 117°55'0 0.0
2018-Jul-19 15:31N 33°37' W 117°55'0 0.0
2018-Jul-19 15:25N 33°37' W 117°55'0 0.0
2018-Jul-19 14:49N 33°37' W 117°55'0 0.0
2018-Jul-19 14:28N 33°37' W 117°55'0 0.0
2018-Jul-19 12:52N 33°37' W 117°55'0 0.0
2018-Jul-19 11:28N 33°37' W 117°55'0 0.0
2018-Jul-19 10:58N 33°37' W 117°55'0 0.0
2018-Jul-19 10:04N 33°37' W 117°55'0 0.0
2018-Jul-19 09:52N 33°37' W 117°55'0 0.0
2018-Jul-19 09:28N 33°37' W 117°55'0 0.0
2018-Jul-19 08:43N 33°37' W 117°55'0 0.0
2018-Jul-19 08:19N 33°37' W 117°55'0 0.0
2018-Jul-19 07:31N 33°37' W 117°55'0 0.0
2018-Jul-19 07:19N 33°37' W 117°55'0 0.0
2018-Jul-19 06:55N 33°37' W 117°55'0 0.0
2018-Jul-19 06:22N 33°37' W 117°55'0 0.0
2018-Jul-19 05:13N 33°37' W 117°55'0 0.0
2018-Jul-19 04:37N 33°37' W 117°55'0 0.0
2018-Jul-19 03:19N 33°37' W 117°55'0 0.0
2018-Jul-19 01:01N 33°37' W 117°55'0 0.0
2018-Jul-19 00:58N 33°37' W 117°55'0 0.0
2018-Jul-19 00:25N 33°37' W 117°55'0 0.0
2018-Jul-18 23:52N 33°37' W 117°55'0 0.0
2018-Jul-18 22:49N 33°37' W 117°55'0 0.0
2018-Jul-18 22:28N 33°37' W 117°55'0 0.0
2018-Jul-18 21:55N 33°37' W 117°55'0 0.0
2018-Jul-18 21:28N 33°37' W 117°55'0 0.0
2018-Jul-18 20:49N 33°37' W 117°55'0 0.0
2018-Jul-18 20:10N 33°37' W 117°55'0 0.0
2018-Jul-18 19:58N 33°37' W 117°55'0 0.0
2018-Jul-18 19:16N 33°37' W 117°55'0 0.0
2018-Jul-18 18:37N 33°37' W 117°55'0 0.0
2018-Jul-18 18:22N 33°37' W 117°55'0 0.0
2018-Jul-18 17:55N 33°37' W 117°55'0 0.0
2018-Jul-18 17:07N 33°37' W 117°55'0 0.0
2018-Jul-18 16:46N 33°37' W 117°55'0 0.0
2018-Jul-18 15:43N 33°37' W 117°55'0 0.0
2018-Jul-18 15:22N 33°37' W 117°55'0 0.0
2018-Jul-18 14:52N 33°37' W 117°55'0 0.0
2018-Jul-18 13:10N 33°37' W 117°55'0 0.0
2018-Jul-18 12:58N 33°37' W 117°55'0 0.0
2018-Jul-18 12:28N 33°37' W 117°55'0 0.0
2018-Jul-18 11:37N 33°37' W 117°55'0 0.0
2018-Jul-18 11:28N 33°37' W 117°55'0 0.0
2018-Jul-18 10:25N 33°37' W 117°55'0 0.0
2018-Jul-18 09:58N 33°37' W 117°55'0 0.0
2018-Jul-18 09:22N 33°37' W 117°55'0 0.0
2018-Jul-18 08:40N 33°37' W 117°55'0 0.0
2018-Jul-18 08:25N 33°37' W 117°55'0 0.0
2018-Jul-18 07:58N 33°37' W 117°55'0 0.0
2018-Jul-18 07:22N 33°37' W 117°55'0 0.0
2018-Jul-18 06:55N 33°37' W 117°55'0 0.0
2018-Jul-18 06:22N 33°37' W 117°55'0 0.0
2018-Jul-18 05:55N 33°37' W 117°55'0 0.0
2018-Jul-18 04:58N 33°37' W 117°55'0 0.0
2018-Jul-18 04:25N 33°37' W 117°55'0 0.0
2018-Jul-18 02:49N 33°37' W 117°55'0 0.0
2018-Jul-18 02:16N 33°37' W 117°55'0 0.0
2018-Jul-18 01:46N 33°37' W 117°55'0 0.0
2018-Jul-18 00:10N 33°37' W 117°55'0 0.0
2018-Jul-17 23:31N 33°37' W 117°55'0 0.0
2018-Jul-17 23:19N 33°37' W 117°55'0 0.0
2018-Jul-17 21:04N 33°37' W 117°55'0 0.0
2018-Jul-17 20:49N 33°37' W 117°55'0 0.0
2018-Jul-17 20:28N 33°37' W 117°55'0 0.0
2018-Jul-17 19:58N 33°37' W 117°55'0 0.0
2018-Jul-17 19:16N 33°37' W 117°55'0 0.0
2018-Jul-17 18:55N 33°37' W 117°55'0 0.0
2018-Jul-17 18:22N 33°37' W 117°55'0 0.0
2018-Jul-17 17:55N 33°37' W 117°55'0 0.0
2018-Jul-17 17:16N 33°37' W 117°55'0 0.0
2018-Jul-17 16:55N 33°37' W 117°55'0 0.0
2018-Jul-17 16:25N 33°37' W 117°55'0 0.0
2018-Jul-17 15:55N 33°37' W 117°55'0 0.0
2018-Jul-17 14:10N 33°37' W 117°55'0 0.0
2018-Jul-17 13:34N 33°37' W 117°55'0 0.0
2018-Jul-17 13:28N 33°37' W 117°55'0 0.0
2018-Jul-17 12:58N 33°37' W 117°55'0 0.0
2018-Jul-17 10:49N 33°37' W 117°55'0 0.0
2018-Jul-17 09:34N 33°37' W 117°55'0 0.0
2018-Jul-17 09:22N 33°37' W 117°55'0 0.0
2018-Jul-17 08:19N 33°37' W 117°55'0 0.0
2018-Jul-17 07:34N 33°37' W 117°55'0 0.0
2018-Jul-17 07:25N 33°37' W 117°55'0 0.0
2018-Jul-17 06:55N 33°37' W 117°55'0 0.0
2018-Jul-17 06:16N 33°37' W 117°55'0 0.0
2018-Jul-17 05:49N 33°37' W 117°55'0 0.0
2018-Jul-17 05:25N 33°37' W 117°55'0 0.0
2018-Jul-17 04:43N 33°37' W 117°55'0 0.0
2018-Jul-17 03:49N 33°37' W 117°55'0 0.0
2018-Jul-17 03:25N 33°37' W 117°55'0 0.0
2018-Jul-17 02:58N 33°37' W 117°55'0 0.0
2018-Jul-17 02:04N 33°37' W 117°55'0 0.0
2018-Jul-17 01:52N 33°37' W 117°55'0 0.0
2018-Jul-17 01:19N 33°37' W 117°55'0 0.0
2018-Jul-17 00:22N 33°37' W 117°55'0 0.0
2018-Jul-16 21:49N 33°37' W 117°55'0 0.0
2018-Jul-16 21:28N 33°37' W 117°55'0 0.0
2018-Jul-16 20:52N 33°37' W 117°55'0 0.0
2018-Jul-16 19:28N 33°37' W 117°55'0 0.0
2018-Jul-16 18:43N 33°37' W 117°55'0 0.0
2018-Jul-16 18:19N 33°37' W 117°55'0 0.0
2018-Jul-16 17:55N 33°37' W 117°55'0 0.0
2018-Jul-16 16:55N 33°37' W 117°55'0 0.0
2018-Jul-16 16:25N 33°37' W 117°55'0 0.0
2018-Jul-16 15:52N 33°37' W 117°55'0 0.0
2018-Jul-16 14:49N 33°37' W 117°55'0 0.0
2018-Jul-16 14:16N 33°37' W 117°55'0 0.0
2018-Jul-16 13:55N 33°37' W 117°55'0 0.0
2018-Jul-16 13:22N 33°37' W 117°55'0 0.0
2018-Jul-16 12:37N 33°37' W 117°55'0 0.0
2018-Jul-16 12:28N 33°37' W 117°55'0 0.0
2018-Jul-16 11:52N 33°37' W 117°55'0 0.0
2018-Jul-16 11:22N 33°37' W 117°55'0 0.0
2018-Jul-16 10:55N 33°37' W 117°55'0 0.0
2018-Jul-16 10:22N 33°37' W 117°55'0 0.0
2018-Jul-16 09:46N 33°37' W 117°55'0 0.0
2018-Jul-16 09:19N 33°37' W 117°55'0 0.0
2018-Jul-16 08:43N 33°37' W 117°55'0 0.0
2018-Jul-16 08:25N 33°37' W 117°55'0 0.0
2018-Jul-16 07:49N 33°37' W 117°55'0 0.0
2018-Jul-16 07:25N 33°37' W 117°55'0 0.0
2018-Jul-16 04:22N 33°37' W 117°55'0 0.0
2018-Jul-16 03:58N 33°37' W 117°55'0 0.0
2018-Jul-16 03:13N 33°37' W 117°55'0 0.0
2018-Jul-16 02:52N 33°37' W 117°55'0 0.0
2018-Jul-16 02:28N 33°37' W 117°55'0 0.0
2018-Jul-16 01:46N 33°37' W 117°55'0 0.0
2018-Jul-16 01:28N 33°37' W 117°55'0 0.0
2018-Jul-16 00:46N 33°37' W 117°55'0 0.0
2018-Jul-16 00:28N 33°37' W 117°55'0 0.0
2018-Jul-15 23:52N 33°37' W 117°55'0 0.0
2018-Jul-15 23:28N 33°37' W 117°55'0 0.0
2018-Jul-15 22:58N 33°37' W 117°55'0 0.0
2018-Jul-15 19:33N 33°37' W 117°55'0 0.0
2018-Jul-15 19:27N 33°37' W 117°55'3 1.5
2018-Jul-15 17:39N 33°35' W 117°54'1 3.9
2018-Jul-15 17:20N 33°35' W 117°53'2 4.7
2018-Jul-15 17:00N 33°36' W 117°54'2 1.2
2018-Jul-15 15:43N 33°37' W 117°55'0 0.0
2018-Jul-15 15:22N 33°37' W 117°55'0 0.0
2018-Jul-15 14:58N 33°37' W 117°55'0 0.0
2018-Jul-15 14:16N 33°37' W 117°55'0 0.0
2018-Jul-15 13:58N 33°37' W 117°55'0 0.0
2018-Jul-15 13:28N 33°37' W 117°55'0 0.0
2018-Jul-15 12:52N 33°37' W 117°55'0 0.0
2018-Jul-15 12:22N 33°37' W 117°55'0 0.0
2018-Jul-15 10:52N 33°37' W 117°55'0 0.0
2018-Jul-15 10:22N 33°37' W 117°55'0 0.0
2018-Jul-15 09:58N 33°37' W 117°55'0 0.0
2018-Jul-15 09:13N 33°37' W 117°55'0 0.0
2018-Jul-15 08:52N 33°37' W 117°55'0 0.0
2018-Jul-15 08:28N 33°37' W 117°55'0 0.0
2018-Jul-15 07:58N 33°37' W 117°55'0 0.0
2018-Jul-15 07:28N 33°37' W 117°55'0 0.0
2018-Jul-15 06:52N 33°37' W 117°55'0 0.0
2018-Jul-15 06:28N 33°37' W 117°55'0 0.0
2018-Jul-15 05:58N 33°37' W 117°55'0 0.0
2018-Jul-15 05:28N 33°37' W 117°55'0 0.0
2018-Jul-15 04:58N 33°37' W 117°55'0 0.0
2018-Jul-15 03:45N 33°37' W 117°55'1 2.5
2018-Jul-15 03:30N 33°37' W 117°55'1 2.3
2018-Jul-15 03:00N 33°36' W 117°54'2 3.1
2018-Jul-15 02:30N 33°37' W 117°55'2 3.1
2018-Jul-15 01:59N 33°36' W 117°54'1 1.2
2018-Jul-15 01:30N 33°36' W 117°53'1 2.1
2018-Jul-15 01:00N 33°37' W 117°54'1 2.8
2018-Jul-15 00:30N 33°37' W 117°55'0 0.0
2018-Jul-15 00:00N 33°37' W 117°55'0 0.0
2018-Jul-14 23:27N 33°37' W 117°55'0 0.0
2018-Jul-14 23:00N 33°37' W 117°55'0 0.0
2018-Jul-14 22:27N 33°37' W 117°55'0 0.0
2018-Jul-14 21:57N 33°37' W 117°55'0 0.0
2018-Jul-14 21:27N 33°37' W 117°55'0 0.0
2018-Jul-14 21:00N 33°37' W 117°55'0 0.0
2018-Jul-14 20:21N 33°37' W 117°55'0 0.0
2018-Jul-14 19:57N 33°37' W 117°55'0 0.0
2018-Jul-14 19:30N 33°37' W 117°55'0 0.0
2018-Jul-14 18:39N 33°37' W 117°55'0 0.0
2018-Jul-14 18:21N 33°37' W 117°55'0 0.0
2018-Jul-14 17:09N 33°37' W 117°55'0 0.0
2018-Jul-14 16:39N 33°37' W 117°55'0 0.0
2018-Jul-14 16:21N 33°37' W 117°55'0 0.0
2018-Jul-14 15:57N 33°37' W 117°55'0 0.0
2018-Jul-14 15:27N 33°37' W 117°55'0 0.0
2018-Jul-14 15:00N 33°37' W 117°55'0 0.0
2018-Jul-14 14:00N 33°37' W 117°55'0 0.0
2018-Jul-14 13:12N 33°37' W 117°55'0 0.0
2018-Jul-14 12:15N 33°37' W 117°55'0 0.0
2018-Jul-14 11:36N 33°37' W 117°55'0 0.0
2018-Jul-14 11:18N 33°37' W 117°55'0 0.0
2018-Jul-14 10:57N 33°37' W 117°55'0 0.0
2018-Jul-14 10:24N 33°37' W 117°55'0 0.0
2018-Jul-14 09:57N 33°37' W 117°55'0 0.0
2018-Jul-14 09:12N 33°37' W 117°55'0 0.0
2018-Jul-14 08:39N 33°37' W 117°55'0 0.0
2018-Jul-14 08:21N 33°37' W 117°55'0 0.0
2018-Jul-14 07:57N 33°37' W 117°55'0 0.0
2018-Jul-14 06:24N 33°37' W 117°55'0 0.0
2018-Jul-14 05:48N 33°37' W 117°55'0 0.0
2018-Jul-14 05:21N 33°37' W 117°55'1 1.0
2018-Jul-14 04:43N 33°37' W 117°55'0 0.7
2018-Jul-14 04:15N 33°37' W 117°55'2 2.8
2018-Jul-14 03:39N 33°36' W 117°53'1 4.5
2018-Jul-14 03:28N 33°36' W 117°54'2 2.7
2018-Jul-14 02:51N 33°37' W 117°55'0 0.0
2018-Jul-14 02:24N 33°37' W 117°55'0 0.0
2018-Jul-14 01:57N 33°37' W 117°55'0 0.0
2018-Jul-14 01:24N 33°37' W 117°55'0 0.0
2018-Jul-14 00:54N 33°37' W 117°55'0 0.0
2018-Jul-14 00:21N 33°37' W 117°55'0 0.0
2018-Jul-14 00:00N 33°37' W 117°55'0 0.0
2018-Jul-13 23:30N 33°37' W 117°55'0 0.0
2018-Jul-13 23:00N 33°37' W 117°55'0 0.0
2018-Jul-13 21:30N 33°37' W 117°55'0 0.0
2018-Jul-13 20:54N 33°37' W 117°55'0 0.0
2018-Jul-13 20:21N 33°37' W 117°55'0 0.0
2018-Jul-13 20:00N 33°37' W 117°55'0 0.0
2018-Jul-13 19:30N 33°37' W 117°55'0 0.0
2018-Jul-13 18:54N 33°37' W 117°55'0 0.0
2018-Jul-13 18:30N 33°37' W 117°55'0 0.0
2018-Jul-13 17:57N 33°37' W 117°55'0 0.0
2018-Jul-13 17:21N 33°37' W 117°55'0 0.0
2018-Jul-13 16:09N 33°37' W 117°55'0 0.0
2018-Jul-13 13:21N 33°37' W 117°55'0 0.0
2018-Jul-13 13:00N 33°37' W 117°55'  

Dump ship's entire track history